Aviation Digital Data Service (ADDS)

Output produced by METARs form (2249 UTC 25 October 2014)
found at http://www.aviationweather.gov/adds/metars/
 
KCXY 252156Z 23004KT 10SM CLR 19/08 A2968 RMK AO2 SLP052 T01940078
KCXY 252056Z 24009KT 10SM BKN070 21/08 A2970 RMK AO2 SLP056 T02110078 56034
KCXY 251956Z 25013G20KT 10SM CLR 21/07 A2972 RMK AO2 SLP065 T02110072
KCXY 251856Z 25011KT 10SM CLR 21/07 A2976 RMK AO2 SLP080 T02060067
KCXY 251756Z 24012KT 10SM CLR 19/07 A2980 RMK AO2 SLP091 T01940067 10194 20061 58033
KCXY 251656Z 27007G17KT 10SM CLR 19/07 A2983 RMK AO2 SLP103 T01890067
KCXY 251556Z 27009KT 230V300 10SM CLR 18/06 A2987 RMK AO2 SLP115 T01830061
KCXY 251456Z 29007KT 10SM CLR 17/06 A2990 RMK AO2 SLP125 T01670061 58012
KCXY 251356Z 25007KT 10SM CLR 13/06 A2992 RMK AO2 SLP134 T01330056
KCXY 251256Z 26008KT 10SM CLR 11/04 A2994 RMK AO2 SLP138 T01060044
KCXY 251156Z 00000KT 10SM CLR 07/03 A2993 RMK AO2 SLP138 T00670033 10106 20061 51002
KCXY 251056Z 00000KT 10SM CLR 07/03 A2993 RMK AO2 SLP136 T00720033
KCXY 250956Z AUTO 34003KT 10SM CLR 10/04 A2993 RMK AO2 SLP136 T01000039
KCXY 250856Z AUTO 00000KT 10SM CLR 10/03 A2992 RMK AO2 SLP134 T01000033 58004
KCXY 250756Z AUTO 25007KT 10SM CLR 10/03 A2993 RMK AO2 SLP137 T01000033
KCXY 250656Z AUTO 26006KT 10SM CLR 09/04 A2993 RMK AO2 SLP137 T00940039
KCXY 250556Z AUTO 26006KT 10SM CLR 10/04 A2994 RMK AO2 SLP139 T01000039 10150 20094 57000
KCXY 250456Z AUTO 28004KT 10SM CLR 11/04 A2994 RMK AO2 SLP140 T01060039 402060100
KCXY 250356Z AUTO 26006KT 10SM CLR 11/04 A2994 RMK AO2 SLP139 T01110039
KCXY 250256Z AUTO 26006KT 10SM CLR 12/04 A2994 RMK AO2 SLP139 T01170039 51010
KCXY 250156Z AUTO 26007KT 10SM CLR 13/04 A2993 RMK AO2 SLP137 T01330039
KCXY 250056Z AUTO 25006KT 10SM CLR 13/03 A2992 RMK AO2 SLP132 T01330033
KCXY 242356Z 27007KT 10SM CLR 15/02 A2991 RMK AO2 SLP129 T01500022 10206 20150 53012
KCXY 242256Z 27007KT 10SM CLR 16/02 A2990 RMK AO2 SLP125 T01610017
KCXY 242156Z 28009KT 10SM CLR 17/02 A2988 RMK AO2 SLP118 T01720017
KCXY 242056Z 29013G17KT 10SM CLR 18/03 A2987 RMK AO2 SLP116 T01830028 55006
KCXY 241956Z 30010KT 10SM CLR 19/01 A2987 RMK AO2 SLP115 T01890011
KCXY 241856Z 31010G19KT 10SM CLR 19/M01 A2987 RMK AO2 SLP116 T01941006
KCXY 241756Z 30010KT 10SM CLR 19/01 A2989 RMK AO2 SLP122 T01940011 10194 20133 58018
KCXY 241656Z 34009G18KT 10SM CLR 19/03 A2991 RMK AO2 SLP129 T01890033
KCXY 241556Z 29008KT 10SM CLR 18/04 A2994 RMK AO2 SLP138 T01780044
KCXY 241456Z 32011KT 10SM CLR 16/04 A2995 RMK AO2 SLP141 T01610044 50006
KCXY 241356Z 30013G22KT 10SM CLR 14/04 A2995 RMK AO2 SLP143 T01440044
KCXY 241256Z 27009KT 10SM SCT042 13/06 A2995 RMK AO2 SLP143 T01330061
KCXY 241156Z 30007KT 10SM CLR 13/06 A2993 RMK AO2 SLP136 T01330061 10144 20128 51004
KCXY 241056Z 32012G17KT 10SM SCT038 13/06 A2993 RMK AO2 SLP134 T01330061